In Rescue
 
Open Full Screen Window  High Contrast Mode
January 24, 2020 7:59 PM CST
Weather Information
Wind Direction
  ---
Wind Speed
  00 kt (0 mph)
Wind Gust
  00 kt (0 mph)
Altimeter
30.09 in
Visibility
10 SM
Temperature
-04° C
25° F
Dewpoint
-06° C
21° F
Humidity
86%
1hr Rain Fall
00.00 in.
24hr Rain Fall
00.00 in.
Sky Condition
Overcast @ 2,500 ft
MVFR

METAR KCKN 250159Z AUTO 00000KT 10SM OVC025 M04/M06 A3009 RMK AO2

FAA Disclaimer: The data displayed is for advisory purposes only and is not to be used for flight planning or operations.